createdAt,value
2017-10-14T00:00:50.734Z,1015.4
2017-10-14T00:01:53.167Z,1015.4
2017-10-14T00:02:55.607Z,1015.4
2017-10-14T00:03:58.044Z,1015.4
2017-10-14T00:05:00.469Z,1015.4
2017-10-14T00:06:02.911Z,1015.4
2017-10-14T00:07:05.342Z,1015.4
2017-10-14T00:08:07.771Z,1015.4
2017-10-14T00:09:10.235Z,1015.4
2017-10-14T00:10:12.643Z,1015.4
2017-10-14T00:11:15.445Z,1015.4
2017-10-14T00:12:17.899Z,1015.4
2017-10-14T00:13:20.356Z,1015.4
2017-10-14T00:14:22.798Z,1015.4
2017-10-14T00:15:25.229Z,1015.4
2017-10-14T00:16:27.686Z,1015.4
2017-10-14T00:17:30.472Z,1015.4
2017-10-14T00:18:32.896Z,1015.3
2017-10-14T00:19:35.328Z,1015.3
2017-10-14T00:20:37.756Z,1015.3
2017-10-14T00:21:40.199Z,1015.3
2017-10-14T00:22:42.639Z,1015.3
2017-10-14T00:23:45.075Z,1015.4
2017-10-14T00:24:47.509Z,1015.3
2017-10-14T00:25:49.947Z,1015.4
2017-10-14T00:26:52.366Z,1015.4
2017-10-14T00:27:54.801Z,1015.4
2017-10-14T00:28:57.248Z,1015.4
2017-10-14T00:30:00.050Z,1015.4
2017-10-14T00:31:02.492Z,1015.4
2017-10-14T00:32:04.922Z,1015.4
2017-10-14T00:33:07.353Z,1015.4
2017-10-14T00:34:09.791Z,1015.4
2017-10-14T00:35:12.224Z,1015.4
2017-10-14T00:36:14.651Z,1015.4
2017-10-14T00:37:17.091Z,1015.4
2017-10-14T00:38:19.532Z,1015.4
2017-10-14T00:39:21.973Z,1015.3
2017-10-14T00:40:24.408Z,1015.3
2017-10-14T00:41:26.827Z,1015.3
2017-10-14T00:42:29.265Z,1015.3
2017-10-14T00:43:31.707Z,1015.3
2017-10-14T00:44:34.140Z,1015.3
2017-10-14T00:45:36.581Z,1015.3
2017-10-14T00:46:39.011Z,1015.3
2017-10-14T00:47:41.802Z,1015.3
2017-10-14T00:48:44.249Z,1015.3
2017-10-14T00:49:46.676Z,1015.3
2017-10-14T00:50:49.117Z,1015.2
2017-10-14T00:51:51.560Z,1015.2
2017-10-14T00:52:53.995Z,1015.2
2017-10-14T00:53:56.429Z,1015.1
2017-10-14T00:54:58.867Z,1015.2
2017-10-14T00:56:01.299Z,1015.2
2017-10-14T00:57:03.734Z,1015.2
2017-10-14T00:58:06.165Z,1015.2
2017-10-14T00:59:08.606Z,1015.2
2017-10-14T01:00:11.033Z,1015.2
2017-10-14T01:01:13.482Z,1015.2
2017-10-14T01:02:15.904Z,1015.2
2017-10-14T01:03:18.746Z,1015.2
2017-10-14T01:04:21.176Z,1015.2
2017-10-14T01:05:23.617Z,1015.2
2017-10-14T01:06:26.050Z,1015.1
2017-10-14T01:07:28.487Z,1015.1
2017-10-14T01:08:30.922Z,1015.2
2017-10-14T01:09:33.353Z,1015.2
2017-10-14T01:10:35.792Z,1015.1
2017-10-14T01:11:38.223Z,1015.1
2017-10-14T01:12:40.644Z,1015.2
2017-10-14T01:13:43.078Z,1015.1
2017-10-14T01:14:45.514Z,1015.2
2017-10-14T01:15:47.942Z,1015.1
2017-10-14T01:16:50.383Z,1015.2
2017-10-14T01:17:52.815Z,1015.2
2017-10-14T01:18:55.610Z,1015.2
2017-10-14T01:19:58.056Z,1015.2
2017-10-14T01:21:00.500Z,1015.2
2017-10-14T01:22:02.926Z,1015.2
2017-10-14T01:23:05.746Z,1015.2
2017-10-14T01:24:08.167Z,1015.2
2017-10-14T01:25:10.601Z,1015.2
2017-10-14T01:26:13.046Z,1015.2
2017-10-14T01:27:15.830Z,1015.2
2017-10-14T01:28:18.258Z,1015.1
2017-10-14T01:29:20.693Z,1015.2
2017-10-14T01:30:23.496Z,1015.2
2017-10-14T01:31:25.934Z,1015.1
2017-10-14T01:32:28.371Z,1015.1
2017-10-14T01:33:30.795Z,1015.1
2017-10-14T01:34:33.228Z,1015.1
2017-10-14T01:35:35.673Z,1015.1
2017-10-14T01:36:38.462Z,1015.1
2017-10-14T01:37:40.899Z,1015.1
2017-10-14T01:38:43.330Z,1015
2017-10-14T01:39:45.777Z,1015
2017-10-14T01:40:48.194Z,1015
2017-10-14T01:41:50.627Z,1015
2017-10-14T01:42:53.062Z,1015.1
2017-10-14T01:43:55.868Z,1015
2017-10-14T01:44:58.305Z,1015.1
2017-10-14T01:46:00.739Z,1015.1
2017-10-14T01:47:03.181Z,1015
2017-10-14T01:48:05.624Z,1015
2017-10-14T01:49:08.062Z,1015
2017-10-14T01:50:10.493Z,1015
2017-10-14T01:51:12.927Z,1015
2017-10-14T01:52:15.361Z,1015.1
2017-10-14T01:53:18.156Z,1015.1
2017-10-14T01:54:20.597Z,1015.1
2017-10-14T01:55:23.025Z,1015.1
2017-10-14T01:56:25.460Z,1015.1
2017-10-14T01:57:27.899Z,1015.1
2017-10-14T01:58:30.332Z,1015.1
2017-10-14T01:59:32.754Z,1015.1
2017-10-14T02:00:35.193Z,1015.1
2017-10-14T02:01:37.981Z,1015.1
2017-10-14T02:02:40.416Z,1015.1
2017-10-14T02:03:42.851Z,1015
2017-10-14T02:04:45.634Z,1015
2017-10-14T02:05:48.410Z,1015
2017-10-14T02:06:51.220Z,1015
2017-10-14T02:07:53.638Z,1014.9
2017-10-14T02:08:56.067Z,1015
2017-10-14T02:09:59.209Z,1015
2017-10-14T02:11:01.642Z,1015
2017-10-14T02:12:04.074Z,1015
2017-10-14T02:13:06.858Z,1015
2017-10-14T02:14:09.310Z,1015
2017-10-14T02:15:11.742Z,1014.9
2017-10-14T02:16:14.540Z,1014.9
2017-10-14T02:17:16.977Z,1015
2017-10-14T02:18:19.408Z,1015
2017-10-14T02:19:21.848Z,1015
2017-10-14T02:20:24.638Z,1014.9
2017-10-14T02:21:27.060Z,1014.9
2017-10-14T02:22:29.500Z,1014.9
2017-10-14T02:23:31.924Z,1014.9
2017-10-14T02:24:34.359Z,1014.9
2017-10-14T02:25:36.793Z,1014.8
2017-10-14T02:26:39.229Z,1014.9
2017-10-14T02:27:41.670Z,1014.9
2017-10-14T02:28:44.104Z,1014.9
2017-10-14T02:29:46.540Z,1014.9
2017-10-14T02:30:48.987Z,1014.9
2017-10-14T02:31:51.421Z,1014.8
2017-10-14T02:32:53.856Z,1014.9
2017-10-14T02:33:56.293Z,1014.9
2017-10-14T02:34:59.089Z,1014.9
2017-10-14T02:36:01.523Z,1014.9
2017-10-14T02:37:03.957Z,1014.9
2017-10-14T02:38:06.391Z,1015
2017-10-14T02:39:08.817Z,1015
2017-10-14T02:40:11.273Z,1015
2017-10-14T02:41:13.705Z,1015
2017-10-14T02:42:16.491Z,1015
2017-10-14T02:43:18.930Z,1015
2017-10-14T02:44:21.359Z,1015
2017-10-14T02:45:23.802Z,1015
2017-10-14T02:46:26.242Z,1015
2017-10-14T02:47:28.669Z,1015
2017-10-14T02:48:31.100Z,1015.1
2017-10-14T02:49:33.545Z,1015
2017-10-14T02:50:35.984Z,1015
2017-10-14T02:51:38.416Z,1015
2017-10-14T02:52:40.854Z,1014.9
2017-10-14T02:53:43.288Z,1014.9
2017-10-14T02:54:46.087Z,1014.9
2017-10-14T02:55:48.518Z,1015
2017-10-14T02:56:50.945Z,1015
2017-10-14T02:57:54.090Z,1015
2017-10-14T02:58:56.529Z,1015
2017-10-14T02:59:58.961Z,1015.1
2017-10-14T03:01:01.396Z,1015.1
2017-10-14T03:02:03.875Z,1015.1
2017-10-14T03:03:06.315Z,1015.1
2017-10-14T03:04:08.767Z,1015.1
2017-10-14T03:05:11.200Z,1015.2
2017-10-14T03:06:13.635Z,1015.2
2017-10-14T03:07:16.067Z,1015.2
2017-10-14T03:08:18.858Z,1015.2
2017-10-14T03:09:21.295Z,1015.2
2017-10-14T03:10:23.725Z,1015.2
2017-10-14T03:11:26.158Z,1015.2
2017-10-14T03:12:28.948Z,1015.2
2017-10-14T03:13:31.372Z,1015.1
2017-10-14T03:14:33.823Z,1015.1
2017-10-14T03:15:36.251Z,1015.2
2017-10-14T03:16:38.684Z,1015.2
2017-10-14T03:17:41.476Z,1015.1
2017-10-14T03:18:43.905Z,1015.2
2017-10-14T03:19:46.331Z,1015.1
2017-10-14T03:20:48.765Z,1015.2
2017-10-14T03:21:51.192Z,1015.2
2017-10-14T03:22:53.633Z,1015.2
2017-10-14T03:23:56.068Z,1015.2
2017-10-14T03:24:58.508Z,1015.2
2017-10-14T03:26:00.940Z,1015.2
2017-10-14T03:27:03.377Z,1015.2
2017-10-14T03:28:05.802Z,1015.2
2017-10-14T03:29:08.606Z,1015.1
2017-10-14T03:30:11.031Z,1015.1
2017-10-14T03:31:13.478Z,1015.1
2017-10-14T03:32:15.898Z,1015.1
2017-10-14T03:33:18.707Z,1015.1
2017-10-14T03:34:21.140Z,1015.1
2017-10-14T03:35:23.578Z,1015
2017-10-14T03:36:26.004Z,1015.1
2017-10-14T03:37:28.428Z,1015.1
2017-10-14T03:38:30.868Z,1015.1
2017-10-14T03:39:33.654Z,1015.1
2017-10-14T03:40:36.098Z,1015.1
2017-10-14T03:41:38.900Z,1015.1
2017-10-14T03:42:41.335Z,1015.1
2017-10-14T03:43:43.769Z,1015.1
2017-10-14T03:44:46.209Z,1015.1
2017-10-14T03:45:48.641Z,1015.2
2017-10-14T03:46:51.079Z,1015.1
2017-10-14T03:47:53.502Z,1015.1
2017-10-14T03:48:55.941Z,1015.1
2017-10-14T03:49:58.378Z,1015.1
2017-10-14T03:51:00.819Z,1015
2017-10-14T03:52:03.244Z,1015.1
2017-10-14T03:53:05.679Z,1015.1
2017-10-14T03:54:08.108Z,1015.1
2017-10-14T03:55:10.543Z,1015.2
2017-10-14T03:56:12.975Z,1015.1
2017-10-14T03:57:15.411Z,1015.1
2017-10-14T03:58:17.846Z,1015.1
2017-10-14T03:59:20.290Z,1015.2
2017-10-14T04:00:22.729Z,1015.1
2017-10-14T04:01:25.164Z,1015.1
2017-10-14T04:02:27.595Z,1015
2017-10-14T04:03:30.043Z,1015
2017-10-14T04:04:32.472Z,1015
2017-10-14T04:05:34.912Z,1015
2017-10-14T04:06:37.702Z,1015.1
2017-10-14T04:07:40.138Z,1015.1
2017-10-14T04:08:42.567Z,1015.1
2017-10-14T04:09:45.003Z,1015.1
2017-10-14T04:10:47.450Z,1015.1
2017-10-14T04:11:49.891Z,1015.1
2017-10-14T04:12:52.311Z,1015.1
2017-10-14T04:13:55.113Z,1015
2017-10-14T04:14:57.544Z,1015
2017-10-14T04:15:59.988Z,1015
2017-10-14T04:17:02.422Z,1015
2017-10-14T04:18:04.855Z,1014.9
2017-10-14T04:19:07.672Z,1015
2017-10-14T04:20:10.117Z,1014.9
2017-10-14T04:21:12.543Z,1014.9
2017-10-14T04:22:14.977Z,1014.9
2017-10-14T04:23:17.407Z,1014.9
2017-10-14T04:24:19.835Z,1014.9
2017-10-14T04:25:22.283Z,1014.8
2017-10-14T04:26:24.714Z,1014.8
2017-10-14T04:27:27.140Z,1014.8
2017-10-14T04:28:29.586Z,1014.8
2017-10-14T04:29:32.022Z,1014.8
2017-10-14T04:30:34.464Z,1014.8
2017-10-14T04:31:36.893Z,1014.8
2017-10-14T04:32:39.323Z,1014.7
2017-10-14T04:33:41.752Z,1014.7
2017-10-14T04:34:44.204Z,1014.8
2017-10-14T04:35:46.628Z,1014.8
2017-10-14T04:36:49.425Z,1014.8
2017-10-14T04:37:52.222Z,1014.8
2017-10-14T04:38:54.999Z,1014.8
2017-10-14T04:39:57.435Z,1014.8
2017-10-14T04:40:59.872Z,1014.8
2017-10-14T04:42:02.664Z,1014.8
2017-10-14T04:43:05.101Z,1014.8
2017-10-14T04:44:07.523Z,1014.9
2017-10-14T04:45:09.952Z,1014.8
2017-10-14T04:46:12.408Z,1014.9
2017-10-14T04:47:15.194Z,1014.9
2017-10-14T04:48:17.628Z,1014.8
2017-10-14T04:49:20.438Z,1014.8
2017-10-14T04:50:22.868Z,1014.9
2017-10-14T04:51:25.317Z,1014.8
2017-10-14T04:52:27.755Z,1014.8
2017-10-14T04:53:30.180Z,1014.8
2017-10-14T04:54:32.622Z,1014.8
2017-10-14T04:55:35.063Z,1014.8
2017-10-14T04:56:37.497Z,1014.9
2017-10-14T04:57:39.942Z,1014.9
2017-10-14T04:58:42.371Z,1014.9
2017-10-14T04:59:44.808Z,1014.9
2017-10-14T05:00:47.617Z,1015
2017-10-14T05:01:50.401Z,1014.9
2017-10-14T05:02:52.836Z,1014.9
2017-10-14T05:03:55.270Z,1014.9
2017-10-14T05:04:58.058Z,1015
2017-10-14T05:06:00.485Z,1015
2017-10-14T05:07:02.930Z,1015
2017-10-14T05:08:05.369Z,1014.9
2017-10-14T05:09:07.806Z,1014.9
2017-10-14T05:10:10.231Z,1014.9
2017-10-14T05:11:13.017Z,1014.9
2017-10-14T05:12:15.455Z,1014.8
2017-10-14T05:13:17.890Z,1014.8
2017-10-14T05:14:21.031Z,1014.8
2017-10-14T05:15:23.467Z,1014.8
2017-10-14T05:16:25.905Z,1014.8
2017-10-14T05:17:28.353Z,1014.8
2017-10-14T05:18:30.792Z,1014.8
2017-10-14T05:19:33.229Z,1014.8
2017-10-14T05:20:36.010Z,1014.9
2017-10-14T05:21:38.449Z,1014.8
2017-10-14T05:22:40.894Z,1014.9
2017-10-14T05:23:43.686Z,1014.9
2017-10-14T05:24:46.104Z,1014.9
2017-10-14T05:25:48.898Z,1014.9
2017-10-14T05:26:51.341Z,1014.9
2017-10-14T05:27:53.780Z,1014.9
2017-10-14T05:28:56.213Z,1014.9
2017-10-14T05:29:59.001Z,1014.9
2017-10-14T05:31:01.432Z,1014.9
2017-10-14T05:32:03.877Z,1014.9
2017-10-14T05:33:06.308Z,1014.9
2017-10-14T05:34:08.751Z,1014.9
2017-10-14T05:35:11.190Z,1015
2017-10-14T05:36:13.626Z,1014.9
2017-10-14T05:37:16.415Z,1014.9
2017-10-14T05:38:18.849Z,1014.9
2017-10-14T05:39:21.646Z,1014.9
2017-10-14T05:40:24.447Z,1014.9
2017-10-14T05:41:26.877Z,1014.8
2017-10-14T05:42:29.315Z,1014.9
2017-10-14T05:43:31.742Z,1014.9
2017-10-14T05:44:34.180Z,1014.9
2017-10-14T05:45:36.982Z,1014.9
2017-10-14T05:46:39.412Z,1014.9
2017-10-14T05:47:41.856Z,1014.9
2017-10-14T05:48:44.298Z,1014.8
2017-10-14T05:49:46.734Z,1014.9
2017-10-14T05:50:49.182Z,1014.9
2017-10-14T05:51:51.627Z,1015
2017-10-14T05:52:54.065Z,1015
2017-10-14T05:53:56.508Z,1015
2017-10-14T05:54:58.941Z,1015
2017-10-14T05:56:01.372Z,1015
2017-10-14T05:57:04.165Z,1015.1
2017-10-14T05:58:06.604Z,1015.1
2017-10-14T05:59:09.380Z,1015.1
2017-10-14T06:00:11.819Z,1015.1
2017-10-14T06:01:14.257Z,1015.1
2017-10-14T06:02:16.696Z,1015.2
2017-10-14T06:03:19.134Z,1015.1
2017-10-14T06:04:21.577Z,1015.1
2017-10-14T06:05:24.003Z,1015
2017-10-14T06:06:26.440Z,1015
2017-10-14T06:07:29.222Z,1015
2017-10-14T06:08:31.673Z,1015
2017-10-14T06:09:34.455Z,1015
2017-10-14T06:10:36.899Z,1015
2017-10-14T06:11:39.338Z,1015
2017-10-14T06:12:41.780Z,1014.9
2017-10-14T06:13:44.220Z,1015
2017-10-14T06:14:46.653Z,1014.9
2017-10-14T06:15:49.432Z,1014.9
2017-10-14T06:16:51.882Z,1014.9
2017-10-14T06:17:54.319Z,1014.9
2017-10-14T06:18:56.745Z,1014.9
2017-10-14T06:19:59.532Z,1014.9
2017-10-14T06:21:01.976Z,1014.9
2017-10-14T06:22:05.119Z,1014.9
2017-10-14T06:23:07.565Z,1015
2017-10-14T06:24:09.984Z,1015
2017-10-14T06:25:12.421Z,1014.9
2017-10-14T06:26:14.856Z,1015
2017-10-14T06:27:17.291Z,1014.9
2017-10-14T06:28:19.723Z,1015
2017-10-14T06:29:22.161Z,1015
2017-10-14T06:30:24.596Z,1015
2017-10-14T06:31:27.044Z,1015
2017-10-14T06:32:29.842Z,1015
2017-10-14T06:33:32.624Z,1015
2017-10-14T06:34:35.426Z,1015
2017-10-14T06:35:37.859Z,1015
2017-10-14T06:36:40.289Z,1014.9
2017-10-14T06:37:42.719Z,1015
2017-10-14T06:38:45.164Z,1014.9
2017-10-14T06:39:47.602Z,1015
2017-10-14T06:40:50.036Z,1015
2017-10-14T06:41:52.474Z,1015
2017-10-14T06:42:54.908Z,1015
2017-10-14T06:43:57.351Z,1015
2017-10-14T06:45:00.138Z,1015
2017-10-14T06:46:02.573Z,1015.1
2017-10-14T06:47:05.001Z,1015.1
2017-10-14T06:48:07.455Z,1015.1
2017-10-14T06:49:09.882Z,1015.1
2017-10-14T06:50:12.322Z,1015.1
2017-10-14T06:51:14.751Z,1015.1
2017-10-14T06:52:17.178Z,1015.1
2017-10-14T06:53:19.967Z,1015.2
2017-10-14T06:54:22.763Z,1015.2
2017-10-14T06:55:25.199Z,1015.2
2017-10-14T06:56:27.633Z,1015.2
2017-10-14T06:57:30.070Z,1015.2
2017-10-14T06:58:32.512Z,1015.3
2017-10-14T06:59:34.964Z,1015.2
2017-10-14T07:00:37.394Z,1015.2
2017-10-14T07:01:39.826Z,1015.3
2017-10-14T07:02:42.625Z,1015.3
2017-10-14T07:03:45.064Z,1015.3
2017-10-14T07:04:47.498Z,1015.3
2017-10-14T07:05:49.937Z,1015.3
2017-10-14T07:06:52.366Z,1015.4
2017-10-14T07:07:54.811Z,1015.4
2017-10-14T07:08:57.246Z,1015.4
2017-10-14T07:09:59.686Z,1015.4
2017-10-14T07:11:02.480Z,1015.5
2017-10-14T07:12:04.916Z,1015.4
2017-10-14T07:13:07.505Z,1015.4
2017-10-14T07:14:09.940Z,1015.5
2017-10-14T07:15:12.373Z,1015.5
2017-10-14T07:16:14.811Z,1015.5
2017-10-14T07:17:17.245Z,1015.4
2017-10-14T07:18:20.036Z,1015.5
2017-10-14T07:19:22.832Z,1015.5
2017-10-14T07:20:25.272Z,1015.5
2017-10-14T07:21:27.706Z,1015.5
2017-10-14T07:24:02.593Z,1015.5
2017-10-14T07:25:04.985Z,1015.5
2017-10-14T07:26:07.368Z,1015.5
2017-10-14T07:27:09.752Z,1015.5
2017-10-14T07:28:12.136Z,1015.5
2017-10-14T07:29:14.866Z,1015.5
2017-10-14T07:30:17.243Z,1015.5
2017-10-14T07:31:19.629Z,1015.5
2017-10-14T07:32:22.000Z,1015.5
2017-10-14T07:33:24.392Z,1015.5
2017-10-14T07:34:26.776Z,1015.5
2017-10-14T07:35:29.496Z,1015.5
2017-10-14T07:36:31.882Z,1015.5
2017-10-14T07:37:34.614Z,1015.5
2017-10-14T07:38:36.996Z,1015.5
2017-10-14T07:39:39.379Z,1015.5
2017-10-14T07:40:41.757Z,1015.5
2017-10-14T07:41:44.488Z,1015.5
2017-10-14T07:42:47.244Z,1015.5
2017-10-14T07:43:49.631Z,1015.5
2017-10-14T07:44:52.013Z,1015.5
2017-10-14T07:45:54.752Z,1015.5
2017-10-14T07:46:57.135Z,1015.5
2017-10-14T07:47:59.515Z,1015.5
2017-10-14T07:49:01.908Z,1015.5
2017-10-14T07:50:04.277Z,1015.5
2017-10-14T07:51:06.667Z,1015.5
2017-10-14T07:52:09.051Z,1015.5
2017-10-14T07:53:11.432Z,1015.6
2017-10-14T07:54:13.815Z,1015.6
2017-10-14T07:55:16.197Z,1015.6
2017-10-14T07:56:18.572Z,1015.6
2017-10-14T07:57:20.970Z,1015.7
2017-10-14T07:58:23.350Z,1015.5
2017-10-14T07:59:25.727Z,1015.6
2017-10-14T08:00:28.114Z,1015.6
2017-10-14T08:01:30.498Z,1015.6
2017-10-14T08:02:32.881Z,1015.6
2017-10-14T08:03:35.267Z,1015.7
2017-10-14T08:04:37.645Z,1015.6
2017-10-14T08:05:40.376Z,1015.6
2017-10-14T08:06:43.113Z,1015.6
2017-10-14T08:07:45.843Z,1015.6
2017-10-14T08:08:48.240Z,1015.6
2017-10-14T08:09:50.622Z,1015.6
2017-10-14T08:10:53.010Z,1015.7
2017-10-14T08:11:55.389Z,1015.7
2017-10-14T08:12:57.775Z,1015.7
2017-10-14T08:14:00.165Z,1015.7
2017-10-14T08:15:02.553Z,1015.7
2017-10-14T08:16:04.926Z,1015.7
2017-10-14T08:17:07.305Z,1015.7
2017-10-14T08:18:09.697Z,1015.6
2017-10-14T08:19:12.078Z,1015.7
2017-10-14T08:20:14.471Z,1015.7
2017-10-14T08:21:17.198Z,1015.7
2017-10-14T08:22:19.588Z,1015.7
2017-10-14T08:23:21.979Z,1015.8
2017-10-14T08:24:24.354Z,1015.8
2017-10-14T08:25:26.735Z,1015.8
2017-10-14T08:26:29.118Z,1015.9
2017-10-14T08:27:31.880Z,1015.8
2017-10-14T08:28:34.622Z,1015.8
2017-10-14T08:29:37.009Z,1015.7
2017-10-14T08:30:39.377Z,1015.8
2017-10-14T08:31:41.762Z,1015.9
2017-10-14T08:32:44.508Z,1015.8
2017-10-14T08:33:46.880Z,1015.8
2017-10-14T08:34:49.266Z,1015.9
2017-10-14T08:35:51.649Z,1015.9
2017-10-14T08:36:54.033Z,1015.8
2017-10-14T08:37:56.420Z,1015.9
2017-10-14T08:38:58.811Z,1015.8
2017-10-14T08:40:01.541Z,1015.8
2017-10-14T08:41:03.940Z,1015.8
2017-10-14T08:42:06.306Z,1015.9
2017-10-14T08:43:08.689Z,1015.8
2017-10-14T08:44:11.075Z,1015.9
2017-10-14T08:45:13.458Z,1015.8
2017-10-14T08:46:16.200Z,1015.9
2017-10-14T08:47:18.570Z,1015.8
2017-10-14T08:48:20.940Z,1015.9
2017-10-14T08:49:23.335Z,1015.9
2017-10-14T08:50:26.059Z,1015.9
2017-10-14T08:51:28.446Z,1015.9
2017-10-14T08:52:30.830Z,1015.9
2017-10-14T08:53:33.214Z,1016
2017-10-14T08:54:35.599Z,1015.9
2017-10-14T08:55:38.004Z,1015.9
2017-10-14T08:56:40.725Z,1015.9
2017-10-14T08:57:43.491Z,1015.9
2017-10-14T08:58:45.877Z,1015.9
2017-10-14T08:59:48.269Z,1015.9
2017-10-14T09:00:51.005Z,1015.8
2017-10-14T09:01:53.390Z,1015.9
2017-10-14T09:02:55.771Z,1015.9
2017-10-14T09:03:58.152Z,1015.9
2017-10-14T09:05:00.530Z,1015.9
2017-10-14T09:06:02.923Z,1015.8
2017-10-14T09:07:05.307Z,1015.9
2017-10-14T09:08:07.682Z,1015.9
2017-10-14T09:09:10.068Z,1015.9
2017-10-14T09:10:12.455Z,1015.8
2017-10-14T09:11:14.839Z,1015.9
2017-10-14T09:12:17.219Z,1015.8
2017-10-14T09:13:19.593Z,1015.8
2017-10-14T09:14:21.973Z,1015.9
2017-10-14T09:15:24.375Z,1015.9
2017-10-14T09:16:27.103Z,1015.9
2017-10-14T09:17:29.487Z,1015.9
2017-10-14T09:18:31.863Z,1015.9
2017-10-14T09:19:34.239Z,1015.9
2017-10-14T09:20:37.011Z,1015.9
2017-10-14T09:21:39.397Z,1015.9
2017-10-14T09:22:41.765Z,1015.9
2017-10-14T09:23:44.153Z,1015.8
2017-10-14T09:24:46.537Z,1015.9
2017-10-14T09:25:48.927Z,1015.9
2017-10-14T09:26:51.316Z,1015.9
2017-10-14T09:27:53.685Z,1015.9
2017-10-14T09:28:56.068Z,1015.8
2017-10-14T09:29:58.463Z,1015.8
2017-10-14T09:31:00.841Z,1015.8
2017-10-14T09:32:03.222Z,1015.8
2017-10-14T09:33:05.606Z,1015.9
2017-10-14T09:34:07.994Z,1015.9
2017-10-14T09:35:10.388Z,1015.9
2017-10-14T09:36:12.781Z,1015.9
2017-10-14T09:37:15.173Z,1015.9
2017-10-14T09:38:17.557Z,1015.9
2017-10-14T09:39:19.933Z,1015.9
2017-10-14T09:40:22.316Z,1015.9
2017-10-14T09:41:24.703Z,1015.9
2017-10-14T09:42:27.079Z,1016
2017-10-14T09:43:29.460Z,1016.1
2017-10-14T09:44:31.845Z,1016
2017-10-14T09:45:34.230Z,1016
2017-10-14T09:46:36.625Z,1016
2017-10-14T09:47:39.002Z,1016.1
2017-10-14T09:48:41.389Z,1016.1
2017-10-14T09:49:43.767Z,1016.1
2017-10-14T09:50:46.513Z,1016.1
2017-10-14T09:51:49.254Z,1016.2
2017-10-14T09:52:51.648Z,1016.1
2017-10-14T09:53:54.019Z,1016.1
2017-10-14T09:54:56.403Z,1016.2
2017-10-14T09:55:58.799Z,1016.2
2017-10-14T09:57:01.177Z,1016.2
2017-10-14T09:58:03.914Z,1016.2
2017-10-14T09:59:06.297Z,1016.2
2017-10-14T10:00:08.676Z,1016.2
2017-10-14T10:01:11.077Z,1016.1
2017-10-14T10:02:13.459Z,1016.2
2017-10-14T10:03:15.843Z,1016.1
2017-10-14T10:04:18.238Z,1016.2
2017-10-14T10:05:20.625Z,1016.2
2017-10-14T10:06:23.010Z,1016.2
2017-10-14T10:07:25.388Z,1016.2
2017-10-14T10:08:27.782Z,1016.3
2017-10-14T10:09:30.160Z,1016.2
2017-10-14T10:10:32.549Z,1016.2
2017-10-14T10:11:34.944Z,1016.3
2017-10-14T10:12:37.306Z,1016.3
2017-10-14T10:13:39.685Z,1016.2
2017-10-14T10:14:42.078Z,1016.2
2017-10-14T10:15:44.457Z,1016.2
2017-10-14T10:16:47.197Z,1016.2
2017-10-14T10:17:49.575Z,1016.1
2017-10-14T10:18:51.966Z,1016.2
2017-10-14T10:19:54.356Z,1016.2
2017-10-14T10:20:56.744Z,1016.2
2017-10-14T10:21:59.131Z,1016.2
2017-10-14T10:23:01.526Z,1016.2
2017-10-14T10:24:03.918Z,1016.3
2017-10-14T10:25:06.658Z,1016.2
2017-10-14T10:26:09.039Z,1016.2
2017-10-14T10:27:11.421Z,1016.3
2017-10-14T10:28:13.796Z,1016.2
2017-10-14T10:29:16.183Z,1016.2
2017-10-14T10:30:18.579Z,1016.2
2017-10-14T10:31:20.964Z,1016.3
2017-10-14T10:32:23.710Z,1016.2
2017-10-14T10:33:26.446Z,1016.2
2017-10-14T10:34:28.837Z,1016.2
2017-10-14T10:35:31.493Z,1016.2
2017-10-14T10:36:34.222Z,1016.1
2017-10-14T10:37:36.595Z,1016.1
2017-10-14T10:38:38.980Z,1016.1
2017-10-14T10:39:41.369Z,1016.1
2017-10-14T10:40:43.757Z,1016.1
2017-10-14T10:41:46.494Z,1016.1
2017-10-14T10:42:48.886Z,1016.1
2017-10-14T10:43:51.270Z,1016.1
2017-10-14T10:44:53.667Z,1016.2
2017-10-14T10:45:56.057Z,1016.1
2017-10-14T10:46:58.459Z,1016.1
2017-10-14T10:48:00.836Z,1016.1
2017-10-14T10:49:03.221Z,1016
2017-10-14T10:50:05.607Z,1016.1
2017-10-14T10:51:08.333Z,1016.1
2017-10-14T10:52:10.710Z,1016.1
2017-10-14T10:53:13.103Z,1016.1
2017-10-14T10:54:15.678Z,1016.1
2017-10-14T10:55:18.086Z,1016.1
2017-10-14T10:56:20.474Z,1016.1
2017-10-14T10:57:22.855Z,1016.1
2017-10-14T10:58:25.240Z,1016.1
2017-10-14T10:59:27.627Z,1016.1
2017-10-14T11:00:30.010Z,1016.1
2017-10-14T11:01:32.387Z,1016.1
2017-10-14T11:02:35.143Z,1016.2
2017-10-14T11:03:37.522Z,1016.1
2017-10-14T11:04:39.915Z,1016.1
2017-10-14T11:05:42.300Z,1016.1
2017-10-14T11:06:44.677Z,1016.2
2017-10-14T11:07:47.420Z,1016.2
2017-10-14T11:08:49.810Z,1016.2
2017-10-14T11:09:52.182Z,1016.1
2017-10-14T11:10:54.572Z,1016.1
2017-10-14T11:11:56.961Z,1016
2017-10-14T11:12:59.347Z,1016.1
2017-10-14T11:14:02.107Z,1016
2017-10-14T11:15:04.498Z,1016
2017-10-14T11:16:06.871Z,1016.1
2017-10-14T11:17:09.262Z,1016
2017-10-14T11:18:11.648Z,1016
2017-10-14T11:19:14.023Z,1015.9
2017-10-14T11:20:16.419Z,1015.9
2017-10-14T11:21:18.793Z,1016
2017-10-14T11:22:21.180Z,1016
2017-10-14T11:23:23.562Z,1016
2017-10-14T11:24:25.950Z,1016
2017-10-14T11:25:28.338Z,1016
2017-10-14T11:26:30.733Z,1016
2017-10-14T11:27:33.123Z,1016.1
2017-10-14T11:28:35.489Z,1016.1
2017-10-14T11:29:37.883Z,1016
2017-10-14T11:30:40.261Z,1016.1
2017-10-14T11:31:42.646Z,1016.1
2017-10-14T11:32:45.021Z,1016.1
2017-10-14T11:33:47.409Z,1016
2017-10-14T11:34:49.796Z,1016.1
2017-10-14T11:35:52.174Z,1016.1
2017-10-14T11:36:54.572Z,1016.1
2017-10-14T11:37:56.947Z,1016.1
2017-10-14T11:38:59.333Z,1016.1
2017-10-14T11:40:01.723Z,1016.1
2017-10-14T11:41:04.101Z,1016.1
2017-10-14T11:42:06.484Z,1016.2
2017-10-14T11:43:08.882Z,1016.2
2017-10-14T11:44:11.259Z,1016.2
2017-10-14T11:45:13.638Z,1016.1
2017-10-14T11:46:16.025Z,1016.2
2017-10-14T11:47:18.406Z,1016.2
2017-10-14T11:48:20.795Z,1016.2
2017-10-14T11:49:23.177Z,1016.1
2017-10-14T11:50:25.556Z,1016.1
2017-10-14T11:51:27.941Z,1016.2
2017-10-14T11:52:30.343Z,1016.1
2017-10-14T11:53:32.723Z,1016.2
2017-10-14T11:54:35.102Z,1016.3
2017-10-14T11:55:37.488Z,1016.1
2017-10-14T11:56:39.877Z,1016.1
2017-10-14T11:57:42.263Z,1016.2
2017-10-14T11:58:44.648Z,1016.1
2017-10-14T11:59:47.025Z,1016.1
2017-10-14T12:00:49.760Z,1016.2
2017-10-14T12:01:52.143Z,1016.1
2017-10-14T12:02:54.536Z,1016.2
2017-10-14T12:03:56.925Z,1016.1
2017-10-14T12:04:59.313Z,1016.1
2017-10-14T12:06:01.705Z,1016.1
2017-10-14T12:07:04.072Z,1016.1
2017-10-14T12:08:06.469Z,1016.2
2017-10-14T12:09:09.215Z,1016.2
2017-10-14T12:10:11.965Z,1016.2
2017-10-14T12:11:14.350Z,1016.2
2017-10-14T12:12:16.728Z,1016.2
2017-10-14T12:13:19.104Z,1016.2
2017-10-14T12:14:21.500Z,1016.2
2017-10-14T12:15:23.881Z,1016.2
2017-10-14T12:16:26.272Z,1016.2
2017-10-14T12:17:28.652Z,1016.2
2017-10-14T12:18:31.037Z,1016.2
2017-10-14T12:19:33.771Z,1016.2
2017-10-14T12:20:36.159Z,1016.3
2017-10-14T12:21:38.542Z,1016.3
2017-10-14T12:22:40.934Z,1016.3
2017-10-14T12:23:43.321Z,1016.2
2017-10-14T12:24:45.698Z,1016.3
2017-10-14T12:25:48.087Z,1016.3
2017-10-14T12:26:50.477Z,1016.1
2017-10-14T12:27:52.852Z,1016.3
2017-10-14T12:28:55.588Z,1016.2
2017-10-14T12:29:57.966Z,1016.2
2017-10-14T12:31:00.359Z,1016.2
2017-10-14T12:32:02.744Z,1016.3
2017-10-14T12:33:05.115Z,1016.2
2017-10-14T12:34:07.501Z,1016.2
2017-10-14T12:35:10.243Z,1016.2
2017-10-14T12:36:12.629Z,1016.2
2017-10-14T12:37:15.358Z,1016.3
2017-10-14T12:38:17.743Z,1016.2
2017-10-14T12:39:20.118Z,1016.3
2017-10-14T12:40:22.518Z,1016.3
2017-10-14T12:41:24.902Z,1016.3
2017-10-14T12:42:27.636Z,1016.3
2017-10-14T12:43:30.024Z,1016.3
2017-10-14T12:44:32.407Z,1016.3
2017-10-14T12:45:34.801Z,1016.3
2017-10-14T12:46:37.529Z,1016.3
2017-10-14T12:47:39.914Z,1016.3
2017-10-14T12:48:42.300Z,1016.3
2017-10-14T12:49:44.698Z,1016.3
2017-10-14T12:50:47.087Z,1016.3
2017-10-14T12:51:49.830Z,1016.3
2017-10-14T12:52:52.221Z,1016.3
2017-10-14T12:53:54.598Z,1016.3
2017-10-14T12:54:56.990Z,1016.3
2017-10-14T12:55:59.369Z,1016.3
2017-10-14T12:57:01.752Z,1016.3
2017-10-14T12:58:04.510Z,1016.3
2017-10-14T12:59:06.890Z,1016.3
2017-10-14T13:00:09.279Z,1016.3
2017-10-14T13:01:12.012Z,1016.2
2017-10-14T13:02:14.785Z,1016.2
2017-10-14T13:03:17.170Z,1016.3
2017-10-14T13:04:19.551Z,1016.2
2017-10-14T13:05:22.286Z,1016.2
2017-10-14T13:06:25.029Z,1016.2
2017-10-14T13:07:27.402Z,1016.2
2017-10-14T13:08:29.786Z,1016.2